x

Buoy A01 - Mass. Bay/stellwagen (44029) Wave Buoy

1:04 - Mon 25th Sep 2017 All times are EDT. -4 hours from GMT.

  • Sig Wave height 3.0ft
  • Peak Period 11s
  • Wind
    7mph, 7mph gusts
  • Sea Temp 62°f
  • Air Temp 68°f
  • Sea Pressure 1018.1mb
  • Buoy A01 - Mass. Bay/stellwagen
  • Buoy A01 - Mass. Bay/stellwagen

More Historic Weather Station data

Upgrade to MSW Pro to gain access to the past 30 days of data for over 8000 Wavebouys and Weather Stations around the globe.

Join

Comparision Forecast

View Surf forecast
   
lun. 09/25 1:04 3ft 11s 7 7 mph 1018.1mb 62f 68f
12:04 2.5ft 11s 2 2 mph 1018.2mb 62f 69f
11:04 2.5ft 11s 2 2 mph 1018.4mb 62f 67f
10:04 2.5ft 11s 4 7 mph 1018.4mb 61f 64f
9:04 2.5ft 11s 2 2 mph 1018mb 61f 64f
8:04 3ft 11s 2 2 mph 1017.9mb 61f 66f
7:04 2.5ft 11s 4 4 mph 1017.5mb 61f 63f
6:04 2.5ft 11s 4 4 mph 1016.7mb 61f 63f
5:04 3.5ft 11s 4 4 mph 1016.2mb 61f 64f
4:04 2.5ft 11s 7 7 mph 1016mb 61f 64f
3:04 2.5ft 16s 7 7 mph 1016mb 61f 64f
2:04 3ft 16s 4 7 mph 1016mb 61f 64f
1:04 2.5ft 11s 4 4 mph 1016mb 61f 64f
12:04 2.5ft 11s 7 9 mph 1016.4mb 61f 64f
dim. 09/24 11:04 2.5ft 6s 9 9 mph 1016.7mb 61f 64f
10:04 2.5ft 11s 7 7 mph 1016.6mb 61f 64f
9:04 3.5ft 11s 4 7 mph 1016.4mb 61f 65f
8:04 3.5ft 11s 4 4 mph 1016.2mb 62f 66f
7:04 2.5ft 11s 7 7 mph 1015.9mb 61f 66f
6:04 2.5ft 11s 2 2 mph 1015.6mb 61f 68f
5:04 2.5ft 11s 4 7 mph 1015.6mb 61f 69f
4:04 2.5ft 11s 7 7 mph 1015.8mb 61f 67f
3:04 2.5ft 11s 7 7 mph 1016mb 61f 67f
2:04  -   -  7 7 mph 1016.3mb 62f 69f
1:04 2.5ft 11s 4 4 mph 1016.7mb 61f 68f
12:04 2.5ft 11s 2 4 mph 1017mb 62f 67f
11:04 2.5ft 11s 2 2 mph 1017.1mb 61f 65f
10:04 3ft 16s 2 4 mph 1017.4mb 62f 64f
9:04 2.5ft 6s 2 2 mph 1017.3mb 61f 63f
8:04 3.5ft 6s 2 4 mph 1017.3mb 61f 63f
7:04 3.5ft 11s 2 2 mph 1017.1mb 61f 62f
6:04 3ft 8s 2 4 mph 1016.7mb 61f 61f
5:04 2.5ft 11s 2 2 mph 1016.1mb 61f 61f
4:04 2.5ft 8s 2 2 mph 1015.7mb 61f 61f
3:04 2.5ft 8s 2 2 mph 1015.7mb 61f 60f
2:04 3ft 8s 2 2 mph 1015.5mb 61f 60f
1:04 3ft 8s 4 4 mph 1015.9mb 60f 59f
12:04 3.5ft 8s 7 7 mph 1016mb 60f 60f
sam. 09/23 11:04 3.5ft 6s 7 7 mph 1016.4mb 60f 60f
10:04 3.5ft 8s 7 7 mph 1016.5mb 60f 59f
9:04 3.5ft 8s 2 2 mph 1016.4mb 60f 60f
8:04 3.5ft 8s 2 2 mph 1016mb 61f 60f
7:04 4ft 8s 4 4 mph 1015.6mb 61f 60f
6:04 3.5ft 8s 4 4 mph 1015.4mb 61f 61f
5:04 4.5ft 8s 7 9 mph 1015.4mb 61f 62f
4:04 4.5ft 8s 7 9 mph 1015.3mb 60f 62f
3:04 4.5ft 8s 9 9 mph 1015.6mb 60f 62f
2:04 5ft 8s 9 11 mph 1015.6mb 60f 62f
1:04 4.5ft 8s 13 16 mph 1015.9mb 60f 62f
12:04 5ft 8s 11 13 mph 1015.7mb 60f 62f
11:04 6ft 8s 16 18 mph 1016.3mb 60f 62f
10:04 6ft 8s 18 20 mph 1016.2mb 60f 61f
9:04 6ft 8s 20 22 mph 1015.9mb 60f 62f
8:04 7ft 8s 16 20 mph 1015.4mb 60f 61f
7:04 6.5ft 8s 18 20 mph 1015.1mb 60f 61f
6:04 6.5ft 8s 18 22 mph 1014.9mb 60f 61f
5:04 7.5ft 8s 18 20 mph 1014.6mb 59f 60f
4:04 7.5ft 8s 20 25 mph 1014.6mb 59f 61f
3:04 8.5ft 11s 20 22 mph 1014.5mb 59f 61f
2:04 9ft 8s 20 22 mph 1014.3mb 59f 61f
1:04 8.5ft 8s 20 22 mph 1014.5mb 59f 60f
12:04 9.5ft 8s 22 27 mph 1014.6mb 59f 61f
ven. 09/22 11:04 8ft 8s 20 25 mph 1015mb 59f 61f
10:04 10ft 11s 25 27 mph 1014.8mb 60f 61f
9:04 11ft 11s 25 29 mph 1014.8mb 60f 61f
8:04 10.5ft 11s 25 31 mph 1014.9mb 59f 61f
7:04 11.5ft 8s 27 34 mph 1014.4mb 59f 60f
6:04 12ft 8s 29 36 mph 1014.4mb 59f 60f
5:04 15.5ft 11s 29 36 mph 1014.7mb 59f 60f
4:04 12ft 11s 29 36 mph 1014.4mb 59f 59f
3:04 13ft 11s 29 38 mph 1014.4mb 59f 60f
2:04 13.5ft 11s 29 38 mph 1014.5mb 59f 60f
1:04 14ft 11s 29 36 mph 1014.8mb 59f 59f
12:04 12.5ft 11s 31 38 mph 1015.1mb 59f 59f
11:04 13.5ft 11s 31 38 mph 1015.2mb 59f 59f
10:04 13ft 8s 29 36 mph 1015.4mb 60f 59f
9:04 14ft 11s 31 38 mph 1015.4mb 60f 60f
8:04 11.5ft 11s 29 38 mph 1015.4mb 60f 59f
7:04 11.5ft 8s 31
mph
1015mb 60f 59f
6:04 11.5ft 8s 29
mph
1014.8mb 60f 59f
5:04 14ft 11s 29
mph
1014.5mb 60f 59f
4:04 14ft 11s 29
mph
1014.4mb 60f 60f
3:04 13ft 11s 29
mph
1014.3mb 61f 61f
2:04 13ft 8s 29
mph
1014.5mb 60f 61f
1:04 12ft 11s 31
mph
1015.2mb 61f 62f
12:04 12ft 11s 27 31 mph 1015.4mb 61f 63f
jeu. 09/21 11:04 13ft 11s 27 31 mph 1015.2mb 61f 64f
10:04 10.5ft 8s 25 31 mph 1015.7mb 61f 63f
9:04 10ft 11s 25 31 mph 1015.8mb 61f 64f
8:04 10ft 11s 22 27 mph 1015.8mb 61f 64f
7:04 11ft 11s 20 25 mph 1015.2mb 61f 64f